sensor_id;sensor_type;location;lat;lon;timestamp;temperature;humidity
86238;DHT22;76908;40.852;14.232;2024-02-28T00:02:11;19.10;57.90
86238;DHT22;76908;40.852;14.232;2024-02-28T00:04:37;19.10;57.90
86238;DHT22;76908;40.852;14.232;2024-02-28T00:07:03;19.00;58.10
86238;DHT22;76908;40.852;14.232;2024-02-28T00:09:28;19.10;57.80
86238;DHT22;76908;40.852;14.232;2024-02-28T00:11:54;19.10;57.80
86238;DHT22;76908;40.852;14.232;2024-02-28T00:14:20;19.10;57.80
86238;DHT22;76908;40.852;14.232;2024-02-28T00:16:48;19.10;57.50
86238;DHT22;76908;40.852;14.232;2024-02-28T00:19:16;19.10;57.30
86238;DHT22;76908;40.852;14.232;2024-02-28T00:21:43;19.10;57.10
86238;DHT22;76908;40.852;14.232;2024-02-28T00:24:10;19.10;56.50
86238;DHT22;76908;40.852;14.232;2024-02-28T00:26:35;19.00;55.80
86238;DHT22;76908;40.852;14.232;2024-02-28T00:29:02;19.00;54.70
86238;DHT22;76908;40.852;14.232;2024-02-28T00:31:29;19.10;54.10
86238;DHT22;76908;40.852;14.232;2024-02-28T00:33:55;19.00;53.80
86238;DHT22;76908;40.852;14.232;2024-02-28T00:36:20;19.10;53.60
86238;DHT22;76908;40.852;14.232;2024-02-28T00:38:46;19.10;53.00
86238;DHT22;76908;40.852;14.232;2024-02-28T00:41:12;19.20;52.60
86238;DHT22;76908;40.852;14.232;2024-02-28T00:43:37;19.20;52.20
86238;DHT22;76908;40.852;14.232;2024-02-28T00:46:03;19.10;52.10
86238;DHT22;76908;40.852;14.232;2024-02-28T00:48:29;19.20;52.40
86238;DHT22;76908;40.852;14.232;2024-02-28T00:50:55;19.20;52.20
86238;DHT22;76908;40.852;14.232;2024-02-28T00:53:20;19.30;52.10
86238;DHT22;76908;40.852;14.232;2024-02-28T00:55:46;19.40;52.10
86238;DHT22;76908;40.852;14.232;2024-02-28T00:58:12;19.40;52.20
86238;DHT22;76908;40.852;14.232;2024-02-28T01:00:38;19.40;52.30
86238;DHT22;76908;40.852;14.232;2024-02-28T01:03:03;19.40;52.40
86238;DHT22;76908;40.852;14.232;2024-02-28T01:05:30;19.20;52.80
86238;DHT22;76908;40.852;14.232;2024-02-28T01:07:55;19.30;52.60
86238;DHT22;76908;40.852;14.232;2024-02-28T01:10:22;19.20;52.40
86238;DHT22;76908;40.852;14.232;2024-02-28T01:12:48;19.10;51.90
86238;DHT22;76908;40.852;14.232;2024-02-28T01:15:14;19.10;50.90
86238;DHT22;76908;40.852;14.232;2024-02-28T01:17:40;19.10;50.40
86238;DHT22;76908;40.852;14.232;2024-02-28T01:20:06;19.00;50.30
86238;DHT22;76908;40.852;14.232;2024-02-28T01:22:35;19.10;49.80
86238;DHT22;76908;40.852;14.232;2024-02-28T01:25:02;19.00;49.70
86238;DHT22;76908;40.852;14.232;2024-02-28T01:27:28;19.00;49.50
86238;DHT22;76908;40.852;14.232;2024-02-28T01:29:54;19.00;49.40
86238;DHT22;76908;40.852;14.232;2024-02-28T01:32:20;19.00;49.30
86238;DHT22;76908;40.852;14.232;2024-02-28T01:34:46;19.00;49.50
86238;DHT22;76908;40.852;14.232;2024-02-28T01:37:12;19.00;49.60
86238;DHT22;76908;40.852;14.232;2024-02-28T01:39:37;19.00;49.30
86238;DHT22;76908;40.852;14.232;2024-02-28T01:42:03;19.00;49.40
86238;DHT22;76908;40.852;14.232;2024-02-28T01:44:29;19.00;49.40
86238;DHT22;76908;40.852;14.232;2024-02-28T01:46:55;19.00;49.30
86238;DHT22;76908;40.852;14.232;2024-02-28T01:49:23;19.00;49.00
86238;DHT22;76908;40.852;14.232;2024-02-28T01:51:49;19.10;49.10
86238;DHT22;76908;40.852;14.232;2024-02-28T01:54:16;19.20;49.00
86238;DHT22;76908;40.852;14.232;2024-02-28T01:56:43;19.10;49.10
86238;DHT22;76908;40.852;14.232;2024-02-28T01:59:10;19.10;49.20
86238;DHT22;76908;40.852;14.232;2024-02-28T02:01:37;19.10;49.20
86238;DHT22;76908;40.852;14.232;2024-02-28T02:04:03;19.10;49.00
86238;DHT22;76908;40.852;14.232;2024-02-28T02:06:30;19.00;49.10
86238;DHT22;76908;40.852;14.232;2024-02-28T02:08:56;19.10;48.80
86238;DHT22;76908;40.852;14.232;2024-02-28T02:11:22;19.10;48.70
86238;DHT22;76908;40.852;14.232;2024-02-28T02:13:52;19.10;48.20
86238;DHT22;76908;40.852;14.232;2024-02-28T02:16:19;19.00;48.70
86238;DHT22;76908;40.852;14.232;2024-02-28T02:18:47;19.00;49.00
86238;DHT22;76908;40.852;14.232;2024-02-28T02:21:17;19.00;48.50
86238;DHT22;76908;40.852;14.232;2024-02-28T02:23:43;19.10;48.40
86238;DHT22;76908;40.852;14.232;2024-02-28T02:26:09;19.10;48.30
86238;DHT22;76908;40.852;14.232;2024-02-28T02:28:34;19.10;48.40
86238;DHT22;76908;40.852;14.232;2024-02-28T02:31:00;19.20;48.50
86238;DHT22;76908;40.852;14.232;2024-02-28T02:33:26;19.10;48.10
86238;DHT22;76908;40.852;14.232;2024-02-28T02:35:55;19.10;48.00
86238;DHT22;76908;40.852;14.232;2024-02-28T02:38:20;19.10;47.50
86238;DHT22;76908;40.852;14.232;2024-02-28T02:40:53;19.10;47.10
86238;DHT22;76908;40.852;14.232;2024-02-28T02:43:18;19.10;47.40
86238;DHT22;76908;40.852;14.232;2024-02-28T02:45:44;19.10;47.30
86238;DHT22;76908;40.852;14.232;2024-02-28T02:48:10;19.10;47.40
86238;DHT22;76908;40.852;14.232;2024-02-28T02:50:36;19.10;47.10
86238;DHT22;76908;40.852;14.232;2024-02-28T02:53:03;19.10;47.10
86238;DHT22;76908;40.852;14.232;2024-02-28T02:55:29;18.90;47.40
86238;DHT22;76908;40.852;14.232;2024-02-28T02:57:56;19.00;47.10
86238;DHT22;76908;40.852;14.232;2024-02-28T03:00:22;19.00;47.00
86238;DHT22;76908;40.852;14.232;2024-02-28T03:02:48;19.00;47.30
86238;DHT22;76908;40.852;14.232;2024-02-28T03:05:14;19.10;46.70
86238;DHT22;76908;40.852;14.232;2024-02-28T03:07:39;19.00;46.30
86238;DHT22;76908;40.852;14.232;2024-02-28T03:10:06;19.00;45.70
86238;DHT22;76908;40.852;14.232;2024-02-28T03:12:31;19.10;45.70
86238;DHT22;76908;40.852;14.232;2024-02-28T03:14:58;19.10;45.70
86238;DHT22;76908;40.852;14.232;2024-02-28T03:17:24;19.20;45.30
86238;DHT22;76908;40.852;14.232;2024-02-28T03:19:49;19.10;45.40
86238;DHT22;76908;40.852;14.232;2024-02-28T03:22:15;19.00;45.20
86238;DHT22;76908;40.852;14.232;2024-02-28T03:24:41;19.00;45.30
86238;DHT22;76908;40.852;14.232;2024-02-28T03:27:07;19.00;44.90
86238;DHT22;76908;40.852;14.232;2024-02-28T03:29:34;19.10;45.10
86238;DHT22;76908;40.852;14.232;2024-02-28T03:31:59;19.10;44.90
86238;DHT22;76908;40.852;14.232;2024-02-28T03:34:25;19.10;45.00
86238;DHT22;76908;40.852;14.232;2024-02-28T03:36:51;19.10;45.10
86238;DHT22;76908;40.852;14.232;2024-02-28T03:39:17;19.10;45.20
86238;DHT22;76908;40.852;14.232;2024-02-28T03:41:42;19.10;44.60
86238;DHT22;76908;40.852;14.232;2024-02-28T03:44:08;19.00;44.50
86238;DHT22;76908;40.852;14.232;2024-02-28T03:46:34;19.00;45.20
86238;DHT22;76908;40.852;14.232;2024-02-28T03:49:00;19.00;44.60
86238;DHT22;76908;40.852;14.232;2024-02-28T03:51:25;19.00;44.80
86238;DHT22;76908;40.852;14.232;2024-02-28T03:53:51;19.00;44.80
86238;DHT22;76908;40.852;14.232;2024-02-28T03:56:26;19.00;44.20
86238;DHT22;76908;40.852;14.232;2024-02-28T03:58:53;19.00;44.10
86238;DHT22;76908;40.852;14.232;2024-02-28T04:01:19;19.00;44.50
86238;DHT22;76908;40.852;14.232;2024-02-28T04:03:45;19.00;44.30
86238;DHT22;76908;40.852;14.232;2024-02-28T04:06:11;19.00;44.50
86238;DHT22;76908;40.852;14.232;2024-02-28T04:08:37;19.10;44.50
86238;DHT22;76908;40.852;14.232;2024-02-28T04:11:03;19.10;44.90
86238;DHT22;76908;40.852;14.232;2024-02-28T04:13:29;19.10;44.60
86238;DHT22;76908;40.852;14.232;2024-02-28T04:15:55;19.10;44.60
86238;DHT22;76908;40.852;14.232;2024-02-28T04:18:21;19.10;44.50
86238;DHT22;76908;40.852;14.232;2024-02-28T04:20:46;19.00;44.60
86238;DHT22;76908;40.852;14.232;2024-02-28T04:23:12;19.10;44.60
86238;DHT22;76908;40.852;14.232;2024-02-28T04:25:38;19.00;44.80
86238;DHT22;76908;40.852;14.232;2024-02-28T04:28:06;19.00;45.00
86238;DHT22;76908;40.852;14.232;2024-02-28T04:30:32;19.10;45.00
86238;DHT22;76908;40.852;14.232;2024-02-28T04:32:57;19.10;44.90
86238;DHT22;76908;40.852;14.232;2024-02-28T04:35:23;19.00;45.30
86238;DHT22;76908;40.852;14.232;2024-02-28T04:37:49;19.00;45.20
86238;DHT22;76908;40.852;14.232;2024-02-28T04:40:15;19.00;45.20
86238;DHT22;76908;40.852;14.232;2024-02-28T04:42:41;19.10;45.10
86238;DHT22;76908;40.852;14.232;2024-02-28T04:45:09;19.10;45.10
86238;DHT22;76908;40.852;14.232;2024-02-28T04:47:35;19.10;45.10
86238;DHT22;76908;40.852;14.232;2024-02-28T04:50:01;19.10;45.00
86238;DHT22;76908;40.852;14.232;2024-02-28T04:52:30;19.10;45.10
86238;DHT22;76908;40.852;14.232;2024-02-28T04:54:56;19.20;44.80
86238;DHT22;76908;40.852;14.232;2024-02-28T04:57:22;19.20;44.50
86238;DHT22;76908;40.852;14.232;2024-02-28T04:59:48;19.20;44.70
86238;DHT22;76908;40.852;14.232;2024-02-28T05:02:13;19.20;44.50
86238;DHT22;76908;40.852;14.232;2024-02-28T05:04:42;19.20;44.40
86238;DHT22;76908;40.852;14.232;2024-02-28T05:07:08;19.10;44.30
86238;DHT22;76908;40.852;14.232;2024-02-28T05:09:34;19.20;44.00
86238;DHT22;76908;40.852;14.232;2024-02-28T05:12:01;19.20;44.00
86238;DHT22;76908;40.852;14.232;2024-02-28T05:14:26;19.20;44.00
86238;DHT22;76908;40.852;14.232;2024-02-28T05:16:52;19.20;43.90
86238;DHT22;76908;40.852;14.232;2024-02-28T05:19:18;19.20;43.80
86238;DHT22;76908;40.852;14.232;2024-02-28T05:21:45;19.20;43.60
86238;DHT22;76908;40.852;14.232;2024-02-28T05:24:10;19.20;43.50
86238;DHT22;76908;40.852;14.232;2024-02-28T05:26:36;19.20;43.40
86238;DHT22;76908;40.852;14.232;2024-02-28T05:29:03;19.20;43.00
86238;DHT22;76908;40.852;14.232;2024-02-28T05:31:29;19.10;42.50
86238;DHT22;76908;40.852;14.232;2024-02-28T05:33:57;19.10;42.80
86238;DHT22;76908;40.852;14.232;2024-02-28T05:36:24;19.10;42.70
86238;DHT22;76908;40.852;14.232;2024-02-28T05:38:50;19.20;42.60
86238;DHT22;76908;40.852;14.232;2024-02-28T05:41:17;19.20;42.50
86238;DHT22;76908;40.852;14.232;2024-02-28T05:43:43;19.10;42.30
86238;DHT22;76908;40.852;14.232;2024-02-28T05:46:09;19.20;42.30
86238;DHT22;76908;40.852;14.232;2024-02-28T05:48:35;19.20;42.50
86238;DHT22;76908;40.852;14.232;2024-02-28T05:51:01;19.30;42.10
86238;DHT22;76908;40.852;14.232;2024-02-28T05:53:27;19.20;42.40
86238;DHT22;76908;40.852;14.232;2024-02-28T05:55:54;19.30;42.40
86238;DHT22;76908;40.852;14.232;2024-02-28T05:58:22;19.30;42.40
86238;DHT22;76908;40.852;14.232;2024-02-28T06:00:48;19.30;42.30
86238;DHT22;76908;40.852;14.232;2024-02-28T06:03:14;19.20;42.50
86238;DHT22;76908;40.852;14.232;2024-02-28T06:05:40;19.30;42.20
86238;DHT22;76908;40.852;14.232;2024-02-28T06:08:06;19.20;42.20
86238;DHT22;76908;40.852;14.232;2024-02-28T06:10:32;19.20;42.20
86238;DHT22;76908;40.852;14.232;2024-02-28T06:12:57;19.30;42.30
86238;DHT22;76908;40.852;14.232;2024-02-28T06:15:23;19.30;42.00
86238;DHT22;76908;40.852;14.232;2024-02-28T06:17:49;19.30;42.00
86238;DHT22;76908;40.852;14.232;2024-02-28T06:20:14;19.20;42.20
86238;DHT22;76908;40.852;14.232;2024-02-28T06:22:40;19.30;42.20
86238;DHT22;76908;40.852;14.232;2024-02-28T06:25:07;19.30;42.10
86238;DHT22;76908;40.852;14.232;2024-02-28T06:27:39;19.30;42.00
86238;DHT22;76908;40.852;14.232;2024-02-28T06:30:06;19.40;41.90
86238;DHT22;76908;40.852;14.232;2024-02-28T06:32:32;19.30;41.80
86238;DHT22;76908;40.852;14.232;2024-02-28T06:34:58;19.40;41.90
86238;DHT22;76908;40.852;14.232;2024-02-28T06:37:23;19.50;41.80
86238;DHT22;76908;40.852;14.232;2024-02-28T06:39:49;19.50;41.70
86238;DHT22;76908;40.852;14.232;2024-02-28T06:42:15;19.50;41.50
86238;DHT22;76908;40.852;14.232;2024-02-28T06:44:41;19.60;41.60
86238;DHT22;76908;40.852;14.232;2024-02-28T06:47:07;19.60;41.60
86238;DHT22;76908;40.852;14.232;2024-02-28T06:49:33;19.60;41.60
86238;DHT22;76908;40.852;14.232;2024-02-28T06:51:58;19.60;41.70
86238;DHT22;76908;40.852;14.232;2024-02-28T06:54:27;19.60;41.80
86238;DHT22;76908;40.852;14.232;2024-02-28T06:56:53;19.60;41.80
86238;DHT22;76908;40.852;14.232;2024-02-28T06:59:18;19.60;41.90
86238;DHT22;76908;40.852;14.232;2024-02-28T07:01:44;19.60;41.70
86238;DHT22;76908;40.852;14.232;2024-02-28T07:04:10;19.60;42.00
86238;DHT22;76908;40.852;14.232;2024-02-28T07:06:35;19.70;41.90
86238;DHT22;76908;40.852;14.232;2024-02-28T07:09:01;19.70;42.10
86238;DHT22;76908;40.852;14.232;2024-02-28T07:11:27;19.70;42.00
86238;DHT22;76908;40.852;14.232;2024-02-28T07:13:53;19.70;42.10
86238;DHT22;76908;40.852;14.232;2024-02-28T07:16:19;19.70;42.00
86238;DHT22;76908;40.852;14.232;2024-02-28T07:18:44;19.70;42.00
86238;DHT22;76908;40.852;14.232;2024-02-28T07:21:10;19.70;42.00
86238;DHT22;76908;40.852;14.232;2024-02-28T07:23:39;19.70;41.80
86238;DHT22;76908;40.852;14.232;2024-02-28T07:26:06;19.70;42.00
86238;DHT22;76908;40.852;14.232;2024-02-28T07:28:32;19.80;42.00
86238;DHT22;76908;40.852;14.232;2024-02-28T07:30:58;19.70;42.40
86238;DHT22;76908;40.852;14.232;2024-02-28T07:33:24;19.70;42.70
86238;DHT22;76908;40.852;14.232;2024-02-28T07:35:52;19.70;42.70
86238;DHT22;76908;40.852;14.232;2024-02-28T07:38:18;19.70;42.50
86238;DHT22;76908;40.852;14.232;2024-02-28T07:40:47;19.70;42.30
86238;DHT22;76908;40.852;14.232;2024-02-28T07:43:13;19.80;42.10
86238;DHT22;76908;40.852;14.232;2024-02-28T07:45:39;19.80;41.90
86238;DHT22;76908;40.852;14.232;2024-02-28T07:48:05;19.80;42.00
86238;DHT22;76908;40.852;14.232;2024-02-28T07:50:31;19.80;41.90
86238;DHT22;76908;40.852;14.232;2024-02-28T07:52:57;19.80;42.00
86238;DHT22;76908;40.852;14.232;2024-02-28T07:55:23;19.80;41.70
86238;DHT22;76908;40.852;14.232;2024-02-28T07:57:53;19.80;41.60
86238;DHT22;76908;40.852;14.232;2024-02-28T08:00:19;19.90;41.60
86238;DHT22;76908;40.852;14.232;2024-02-28T08:02:45;19.90;41.40
86238;DHT22;76908;40.852;14.232;2024-02-28T08:05:11;19.90;41.20
86238;DHT22;76908;40.852;14.232;2024-02-28T08:07:37;19.90;41.30
86238;DHT22;76908;40.852;14.232;2024-02-28T08:10:03;20.00;41.00
86238;DHT22;76908;40.852;14.232;2024-02-28T08:12:32;20.00;40.90
86238;DHT22;76908;40.852;14.232;2024-02-28T08:14:58;20.00;41.00
86238;DHT22;76908;40.852;14.232;2024-02-28T08:17:24;20.00;41.00
86238;DHT22;76908;40.852;14.232;2024-02-28T08:19:49;20.20;40.80
86238;DHT22;76908;40.852;14.232;2024-02-28T08:22:15;20.30;40.50
86238;DHT22;76908;40.852;14.232;2024-02-28T08:24:41;20.40;41.30
86238;DHT22;76908;40.852;14.232;2024-02-28T08:27:07;20.50;41.10
86238;DHT22;76908;40.852;14.232;2024-02-28T08:29:33;20.50;40.80
86238;DHT22;76908;40.852;14.232;2024-02-28T08:32:00;20.50;41.00
86238;DHT22;76908;40.852;14.232;2024-02-28T08:34:26;20.60;41.10
86238;DHT22;76908;40.852;14.232;2024-02-28T08:36:52;20.50;41.40
86238;DHT22;76908;40.852;14.232;2024-02-28T08:39:18;20.50;41.20
86238;DHT22;76908;40.852;14.232;2024-02-28T08:41:43;20.40;41.10
86238;DHT22;76908;40.852;14.232;2024-02-28T08:44:10;20.50;41.30
86238;DHT22;76908;40.852;14.232;2024-02-28T08:46:36;20.60;41.40
86238;DHT22;76908;40.852;14.232;2024-02-28T08:49:02;20.60;41.50
86238;DHT22;76908;40.852;14.232;2024-02-28T08:51:28;20.60;40.80
86238;DHT22;76908;40.852;14.232;2024-02-28T08:53:54;20.70;41.00
86238;DHT22;76908;40.852;14.232;2024-02-28T08:56:21;20.70;41.10
86238;DHT22;76908;40.852;14.232;2024-02-28T08:58:46;20.90;41.10
86238;DHT22;76908;40.852;14.232;2024-02-28T09:01:16;20.90;40.50
86238;DHT22;76908;40.852;14.232;2024-02-28T09:03:42;20.90;40.30
86238;DHT22;76908;40.852;14.232;2024-02-28T09:06:07;20.90;40.30
86238;DHT22;76908;40.852;14.232;2024-02-28T09:08:33;21.00;40.00
86238;DHT22;76908;40.852;14.232;2024-02-28T09:10:59;21.00;40.70
86238;DHT22;76908;40.852;14.232;2024-02-28T09:13:25;21.00;40.30
86238;DHT22;76908;40.852;14.232;2024-02-28T09:15:52;21.00;40.50
86238;DHT22;76908;40.852;14.232;2024-02-28T09:18:17;21.10;40.50
86238;DHT22;76908;40.852;14.232;2024-02-28T09:20:43;21.30;40.30
86238;DHT22;76908;40.852;14.232;2024-02-28T09:23:09;21.40;40.10
86238;DHT22;76908;40.852;14.232;2024-02-28T09:25:34;21.50;40.00
86238;DHT22;76908;40.852;14.232;2024-02-28T09:28:04;21.50;39.80
86238;DHT22;76908;40.852;14.232;2024-02-28T09:30:29;21.50;39.60
86238;DHT22;76908;40.852;14.232;2024-02-28T09:32:55;21.60;39.60
86238;DHT22;76908;40.852;14.232;2024-02-28T09:35:21;21.60;39.50
86238;DHT22;76908;40.852;14.232;2024-02-28T09:37:47;21.60;39.30
86238;DHT22;76908;40.852;14.232;2024-02-28T09:40:12;21.60;39.10
86238;DHT22;76908;40.852;14.232;2024-02-28T09:42:38;21.60;39.00
86238;DHT22;76908;40.852;14.232;2024-02-28T09:45:04;21.50;39.40
86238;DHT22;76908;40.852;14.232;2024-02-28T09:47:33;21.50;39.50
86238;DHT22;76908;40.852;14.232;2024-02-28T09:50:00;21.40;39.60
86238;DHT22;76908;40.852;14.232;2024-02-28T09:52:27;21.40;40.20
86238;DHT22;76908;40.852;14.232;2024-02-28T09:54:55;21.40;40.60
86238;DHT22;76908;40.852;14.232;2024-02-28T09:57:23;21.40;41.30
86238;DHT22;76908;40.852;14.232;2024-02-28T09:59:58;21.10;41.90
86238;DHT22;76908;40.852;14.232;2024-02-28T10:02:25;21.10;42.20
86238;DHT22;76908;40.852;14.232;2024-02-28T10:04:52;21.30;42.20
86238;DHT22;76908;40.852;14.232;2024-02-28T10:07:18;21.40;42.80
86238;DHT22;76908;40.852;14.232;2024-02-28T10:09:44;21.30;43.20
86238;DHT22;76908;40.852;14.232;2024-02-28T10:12:10;21.20;43.50
86238;DHT22;76908;40.852;14.232;2024-02-28T10:14:36;21.50;43.20
86238;DHT22;76908;40.852;14.232;2024-02-28T10:17:01;21.60;43.00
86238;DHT22;76908;40.852;14.232;2024-02-28T10:19:27;21.60;43.00
86238;DHT22;76908;40.852;14.232;2024-02-28T10:21:53;21.60;43.20
86238;DHT22;76908;40.852;14.232;2024-02-28T10:24:19;21.30;44.10
86238;DHT22;76908;40.852;14.232;2024-02-28T10:26:45;21.10;44.80
86238;DHT22;76908;40.852;14.232;2024-02-28T10:29:13;21.20;44.50
86238;DHT22;76908;40.852;14.232;2024-02-28T10:31:40;21.20;45.00
86238;DHT22;76908;40.852;14.232;2024-02-28T10:34:07;20.90;45.50
86238;DHT22;76908;40.852;14.232;2024-02-28T10:36:36;20.90;45.60
86238;DHT22;76908;40.852;14.232;2024-02-28T10:39:03;20.80;45.90
86238;DHT22;76908;40.852;14.232;2024-02-28T10:41:29;20.50;45.70
86238;DHT22;76908;40.852;14.232;2024-02-28T10:43:57;20.60;45.80
86238;DHT22;76908;40.852;14.232;2024-02-28T10:46:22;20.80;45.30
86238;DHT22;76908;40.852;14.232;2024-02-28T10:48:50;20.70;45.40
86238;DHT22;76908;40.852;14.232;2024-02-28T10:51:22;20.70;45.30
86238;DHT22;76908;40.852;14.232;2024-02-28T10:53:50;20.60;45.20
86238;DHT22;76908;40.852;14.232;2024-02-28T10:56:20;20.50;45.70
86238;DHT22;76908;40.852;14.232;2024-02-28T10:58:51;20.40;46.70
86238;DHT22;76908;40.852;14.232;2024-02-28T11:01:18;20.40;47.10
86238;DHT22;76908;40.852;14.232;2024-02-28T11:03:44;20.50;47.40
86238;DHT22;76908;40.852;14.232;2024-02-28T11:06:21;20.50;48.60
86238;DHT22;76908;40.852;14.232;2024-02-28T11:08:48;20.40;48.60
86238;DHT22;76908;40.852;14.232;2024-02-28T11:11:20;20.10;49.90
86238;DHT22;76908;40.852;14.232;2024-02-28T11:13:53;19.90;51.80
86238;DHT22;76908;40.852;14.232;2024-02-28T11:16:26;20.20;51.30
86238;DHT22;76908;40.852;14.232;2024-02-28T11:18:53;20.10;50.50
86238;DHT22;76908;40.852;14.232;2024-02-28T11:21:19;20.10;50.30
86238;DHT22;76908;40.852;14.232;2024-02-28T11:23:48;20.30;50.10
86238;DHT22;76908;40.852;14.232;2024-02-28T11:26:14;20.60;49.10
86238;DHT22;76908;40.852;14.232;2024-02-28T11:28:40;20.70;48.50
86238;DHT22;76908;40.852;14.232;2024-02-28T11:31:06;20.80;48.20
86238;DHT22;76908;40.852;14.232;2024-02-28T11:33:31;20.80;48.10
86238;DHT22;76908;40.852;14.232;2024-02-28T11:36:00;20.80;47.70
86238;DHT22;76908;40.852;14.232;2024-02-28T11:38:26;20.80;47.60
86238;DHT22;76908;40.852;14.232;2024-02-28T11:40:53;20.90;47.30
86238;DHT22;76908;40.852;14.232;2024-02-28T11:43:19;20.90;47.20
86238;DHT22;76908;40.852;14.232;2024-02-28T11:45:45;21.00;46.60
86238;DHT22;76908;40.852;14.232;2024-02-28T11:48:15;21.00;46.70
86238;DHT22;76908;40.852;14.232;2024-02-28T11:50:42;21.20;46.30
86238;DHT22;76908;40.852;14.232;2024-02-28T11:55:41;21.40;46.10
86238;DHT22;76908;40.852;14.232;2024-02-28T11:58:08;21.60;45.90
86238;DHT22;76908;40.852;14.232;2024-02-28T12:00:50;21.70;45.30
86238;DHT22;76908;40.852;14.232;2024-02-28T12:03:22;21.60;45.10
86238;DHT22;76908;40.852;14.232;2024-02-28T12:05:49;21.60;45.30
86238;DHT22;76908;40.852;14.232;2024-02-28T12:08:16;21.70;45.30
86238;DHT22;76908;40.852;14.232;2024-02-28T12:10:42;21.70;45.40
86238;DHT22;76908;40.852;14.232;2024-02-28T12:13:08;21.80;45.30
86238;DHT22;76908;40.852;14.232;2024-02-28T12:15:35;21.80;44.50
86238;DHT22;76908;40.852;14.232;2024-02-28T12:18:07;21.80;44.00
86238;DHT22;76908;40.852;14.232;2024-02-28T12:20:34;21.60;44.50
86238;DHT22;76908;40.852;14.232;2024-02-28T12:23:00;21.70;44.50
86238;DHT22;76908;40.852;14.232;2024-02-28T12:25:25;21.70;44.70
86238;DHT22;76908;40.852;14.232;2024-02-28T12:27:51;21.70;45.20
86238;DHT22;76908;40.852;14.232;2024-02-28T12:30:19;21.80;45.30
86238;DHT22;76908;40.852;14.232;2024-02-28T12:32:45;21.70;45.70
86238;DHT22;76908;40.852;14.232;2024-02-28T12:35:10;21.70;45.90
86238;DHT22;76908;40.852;14.232;2024-02-28T12:37:36;21.70;45.90
86238;DHT22;76908;40.852;14.232;2024-02-28T12:40:02;21.80;45.80
86238;DHT22;76908;40.852;14.232;2024-02-28T12:42:30;21.90;45.90
86238;DHT22;76908;40.852;14.232;2024-02-28T12:44:56;22.00;45.80
86238;DHT22;76908;40.852;14.232;2024-02-28T12:47:21;22.10;45.60
86238;DHT22;76908;40.852;14.232;2024-02-28T12:49:47;22.10;45.50
86238;DHT22;76908;40.852;14.232;2024-02-28T12:52:13;22.10;45.10
86238;DHT22;76908;40.852;14.232;2024-02-28T12:54:39;22.00;45.30
86238;DHT22;76908;40.852;14.232;2024-02-28T12:57:05;22.10;45.30
86238;DHT22;76908;40.852;14.232;2024-02-28T12:59:32;22.10;45.10
86238;DHT22;76908;40.852;14.232;2024-02-28T13:01:58;22.10;44.60
86238;DHT22;76908;40.852;14.232;2024-02-28T13:04:24;22.00;44.60
86238;DHT22;76908;40.852;14.232;2024-02-28T13:06:52;22.00;44.40
86238;DHT22;76908;40.852;14.232;2024-02-28T13:09:18;22.00;44.30
86238;DHT22;76908;40.852;14.232;2024-02-28T13:11:45;22.00;44.20
86238;DHT22;76908;40.852;14.232;2024-02-28T13:14:10;22.00;44.10
86238;DHT22;76908;40.852;14.232;2024-02-28T13:16:38;22.00;44.10
86238;DHT22;76908;40.852;14.232;2024-02-28T13:19:03;22.00;44.10
86238;DHT22;76908;40.852;14.232;2024-02-28T13:21:30;22.10;44.00
86238;DHT22;76908;40.852;14.232;2024-02-28T13:23:58;22.30;44.00
86238;DHT22;76908;40.852;14.232;2024-02-28T13:26:24;22.30;43.60
86238;DHT22;76908;40.852;14.232;2024-02-28T13:28:50;22.20;43.50
86238;DHT22;76908;40.852;14.232;2024-02-28T13:31:16;22.20;43.40
86238;DHT22;76908;40.852;14.232;2024-02-28T13:33:41;22.20;43.00
86238;DHT22;76908;40.852;14.232;2024-02-28T13:36:08;22.10;42.20
86238;DHT22;76908;40.852;14.232;2024-02-28T13:38:34;22.10;42.80
86238;DHT22;76908;40.852;14.232;2024-02-28T13:41:00;22.10;42.70
86238;DHT22;76908;40.852;14.232;2024-02-28T13:43:26;22.20;42.50
86238;DHT22;76908;40.852;14.232;2024-02-28T13:45:53;22.10;42.70
86238;DHT22;76908;40.852;14.232;2024-02-28T13:48:22;22.10;42.70
86238;DHT22;76908;40.852;14.232;2024-02-28T13:50:50;22.00;43.10
86238;DHT22;76908;40.852;14.232;2024-02-28T13:53:16;21.90;43.00
86238;DHT22;76908;40.852;14.232;2024-02-28T13:55:42;21.90;42.70
86238;DHT22;76908;40.852;14.232;2024-02-28T13:58:09;21.90;42.00
86238;DHT22;76908;40.852;14.232;2024-02-28T14:00:36;21.90;42.20
86238;DHT22;76908;40.852;14.232;2024-02-28T14:03:05;22.00;42.50
86238;DHT22;76908;40.852;14.232;2024-02-28T14:05:32;21.90;42.80
86238;DHT22;76908;40.852;14.232;2024-02-28T14:07:57;22.00;42.90
86238;DHT22;76908;40.852;14.232;2024-02-28T14:10:24;22.10;43.00
86238;DHT22;76908;40.852;14.232;2024-02-28T14:12:50;21.80;43.20
86238;DHT22;76908;40.852;14.232;2024-02-28T14:15:21;21.80;43.10
86238;DHT22;76908;40.852;14.232;2024-02-28T14:17:48;21.80;43.00
86238;DHT22;76908;40.852;14.232;2024-02-28T14:20:14;21.80;43.00
86238;DHT22;76908;40.852;14.232;2024-02-28T14:22:40;21.90;43.00
86238;DHT22;76908;40.852;14.232;2024-02-28T14:25:14;21.90;42.90
86238;DHT22;76908;40.852;14.232;2024-02-28T14:27:42;22.10;42.80
86238;DHT22;76908;40.852;14.232;2024-02-28T14:30:09;22.10;42.90
86238;DHT22;76908;40.852;14.232;2024-02-28T14:32:36;22.10;43.20
86238;DHT22;76908;40.852;14.232;2024-02-28T14:35:04;22.00;43.30
86238;DHT22;76908;40.852;14.232;2024-02-28T14:37:30;22.00;43.50
86238;DHT22;76908;40.852;14.232;2024-02-28T14:39:56;22.00;43.70
86238;DHT22;76908;40.852;14.232;2024-02-28T14:42:22;22.00;43.70
86238;DHT22;76908;40.852;14.232;2024-02-28T14:44:48;21.90;44.00
86238;DHT22;76908;40.852;14.232;2024-02-28T14:47:14;22.00;44.00
86238;DHT22;76908;40.852;14.232;2024-02-28T14:49:40;21.80;44.60
86238;DHT22;76908;40.852;14.232;2024-02-28T14:52:05;21.80;44.90
86238;DHT22;76908;40.852;14.232;2024-02-28T14:54:31;21.70;45.20
86238;DHT22;76908;40.852;14.232;2024-02-28T14:56:57;21.70;45.40
86238;DHT22;76908;40.852;14.232;2024-02-28T14:59:22;21.60;45.50
86238;DHT22;76908;40.852;14.232;2024-02-28T15:01:49;21.60;45.70
86238;DHT22;76908;40.852;14.232;2024-02-28T15:04:15;21.70;45.50
86238;DHT22;76908;40.852;14.232;2024-02-28T15:06:41;21.60;45.70
86238;DHT22;76908;40.852;14.232;2024-02-28T15:09:07;21.50;46.00
86238;DHT22;76908;40.852;14.232;2024-02-28T15:11:34;21.50;46.00
86238;DHT22;76908;40.852;14.232;2024-02-28T15:14:00;21.50;46.00